Terminal Aerodrome Forecast
Issued by NWS Duluth, MN

Home | Current Version | Previous Version | Text Only | Print | Product List | Glossary On
Versions: 1 2 3 4 5 6 7 8 9 10 11 12 13 14 15 16 17 18 19 20 21 22 23 24 25 26
470
FTUS43 KDLH 261734
TAFINL
TAF
KINL 261734Z 2618/2718 30010G17KT P6SM VCSH BKN060
     FM270100 30004KT P6SM FEW060
     FM271400 24008G14KT P6SM FEW250=

USA.gov is the U.S. government's official web portal to all federal, state and local government web resources and services.